Terminal Aerodrome Forecast
Issued by NWS

Home | Current Version | Previous Version | Graphics & Text | Print | Product List | Glossary Off
Versions: 1 2 3 4 5 6 7 8 9 10 11 12 13 14 15 16 17 18 19 20 21 22 23 24 25 26 27

000
FTUS45 KGGW 231700
TAFGDV
TAF
KGDV 231720Z 2318/2418 11015KT P6SM SCT040 OVC060
     FM240000 10012KT P6SM BKN050
     FM240500 VRB06KT P6SM VCSH BKN020
     FM241000 05008KT P6SM VCSH BKN010
      AMD LTD TO CLD VIS AND WIND=

USA.gov is the U.S. government's official web portal to all federal, state and local government web resources and services.